This is the latest recevied weather packets stored in our database for station/object OK1KKY-18. If no packets are shown the sender has not sent any weather packets the latest 10 day(s).
| Time | Temp. | Humidity | Pressure | Rain* | Wind** | Luminosity | Snow |
|---|---|---|---|---|---|---|---|
| 1778092565 | 12.22° C | 89% | 1005.9 hPa | - | - | - | - |
| 1778091965 | 12.78° C | 87% | 1006.7 hPa | - | - | - | - |
| 1778091365 | 12.78° C | 87% | 1007 hPa | - | - | - | - |
| 1778090765 | 13.33° C | 85% | 1007.1 hPa | - | - | - | - |
| 1778090165 | 13.33° C | 86% | 1007 hPa | - | - | - | - |
| 1778089565 | 13.33° C | 85% | 1006.8 hPa | - | - | - | - |
| 1778088965 | 13.89° C | 84% | 1006.8 hPa | - | - | - | - |
| 1778088365 | 13.89° C | 83% | 1007.1 hPa | - | - | - | - |
| 1778087765 | 13.89° C | 80% | 1007 hPa | - | - | - | - |
| 1778087165 | 14.44° C | 78% | 1006.9 hPa | - | - | - | - |
| 1778086565 | 15° C | 73% | 1006.9 hPa | - | - | - | - |
| 1778085965 | 16.67° C | 68% | 1006.1 hPa | - | - | - | - |
| 1778085365 | 17.22° C | 62% | 1005.8 hPa | - | - | - | - |
| 1778084765 | 17.78° C | 59% | 1006 hPa | - | - | - | - |
| 1778084165 | 17.78° C | 58% | 1005.8 hPa | - | - | - | - |
| 1778083565 | 18.89° C | 54% | 1005.9 hPa | - | - | - | - |
| 1778082965 | 18.89° C | 51% | 1006.2 hPa | - | - | - | - |
| 1778082365 | 18.89° C | 49% | 1006.2 hPa | - | - | - | - |
| 1778081765 | 18.89° C | 47% | 1006.1 hPa | - | - | - | - |
| 1778081165 | 19.44° C | 47% | 1006.2 hPa | - | - | - | - |
| 1778080569 | 18.89° C | 48% | 1006.3 hPa | - | - | - | - |
| 1778079962 | 19.44° C | 47% | 1006.5 hPa | - | - | - | - |
| 1778079362 | 18.89° C | 49% | 1006.6 hPa | - | - | - | - |
| 1778078762 | 20° C | 45% | 1006.6 hPa | - | - | - | - |
| 1778078162 | 20° C | 46% | 1006.5 hPa | - | - | - | - |
* Rain since midnight (hover to see other rain measurements)
** Current wind speed in m/s (hover to see current wind gust speed)